Time;durP1;ratioP1;P1;durP2;ratioP2;P2;SDS_P1;SDS_P2;PMS_P1;PMS_P2;Temp;Humidity;BMP_temperature;BMP_pressure;BME280_temperature;BME280_humidity;BME280_pressure;Samples;Min_cycle;Max_cycle;Signal;HPM_P1;HPM_P2
2023/12/06 00:00:44;;;;;;;;;;;;;;;11.45;49.77;100126.97;4941240;28;129037;-66
2023/12/06 00:03:10;;;;;;;;;;;;;;;11.45;50.21;100126.16;4939518;28;98829;-66
2023/12/06 00:05:37;;;;;;;;;;;;;;;11.45;49.98;100129.66;4936750;28;128567;-66
2023/12/06 00:08:03;;;;;;;;;;;;;;;11.46;50.01;100133.16;4926615;28;98937;-71
2023/12/06 00:10:29;;;;;;;;;;;;;;;11.46;49.91;100127.75;4929162;28;98735;-71
2023/12/06 00:12:55;;;;;;;;;;;;;;;11.45;49.99;100126.97;4937006;28;117838;-66
2023/12/06 00:15:21;;;;;;;;;;;;;;;11.45;50.00;100128.84;4911595;28;98078;-66
2023/12/06 00:17:47;;;;;;;;;;;;;;;11.46;50.01;100127.75;4926883;28;128146;-71
2023/12/06 00:20:13;;;;;;;;;;;;;;;11.46;49.96;100131.25;4927105;28;117287;-71
2023/12/06 00:22:39;;;;;;;;;;;;;;;11.48;50.06;100131.00;4928339;28;98110;-66
2023/12/06 00:25:05;;;;;;;;;;;;;;;11.47;50.06;100135.56;4939809;28;98045;-71
2023/12/06 00:27:31;;;;;;;;;;;;;;;11.47;50.14;100135.56;4924349;28;98277;-71
2023/12/06 00:29:57;;;;;;;;;;;;;;;11.48;50.02;100139.09;4910401;28;115924;-66
2023/12/06 00:32:26;;;;;;;;;;;;;;;11.48;50.03;100136.41;4933355;28;102298;-71
2023/12/06 00:34:52;;;;;;;;;;;;;;;11.46;49.96;100128.56;4928225;28;130243;-66
2023/12/06 00:37:18;;;;;;;;;;;;;;;11.46;50.07;100136.66;4904402;28;115494;-71
2023/12/06 00:39:44;;;;;;;;;;;;;;;11.43;49.95;100137.22;4906100;28;98343;-66
2023/12/06 00:42:10;;;;;;;;;;;;;;;11.42;49.96;100142.91;4904384;28;116056;-71
2023/12/06 00:44:36;;;;;;;;;;;;;;;11.40;49.91;100142.41;4927064;28;131305;-71
2023/12/06 00:47:02;;;;;;;;;;;;;;;11.38;50.08;100145.34;4907279;28;127919;-71
2023/12/06 00:49:28;;;;;;;;;;;;;;;11.37;50.00;100142.94;4924468;28;98269;-71
2023/12/06 00:51:54;;;;;;;;;;;;;;;11.34;49.95;100141.59;4939618;28;98117;-66
2023/12/06 00:54:20;;;;;;;;;;;;;;;11.34;49.98;100138.09;4926198;28;108548;-71
2023/12/06 00:56:46;;;;;;;;;;;;;;;11.31;50.01;100137.56;4926359;28;102780;-66
2023/12/06 00:59:12;;;;;;;;;;;;;;;11.31;49.94;100139.47;4928135;28;98902;-66
2023/12/06 01:01:38;;;;;;;;;;;;;;;11.29;49.97;100139.75;4927583;28;98261;-71
2023/12/06 01:04:04;;;;;;;;;;;;;;;11.28;50.17;100148.94;4913146;28;99986;-66
2023/12/06 01:06:30;;;;;;;;;;;;;;;11.27;50.20;100147.31;4911679;28;98005;-71
2023/12/06 01:08:56;;;;;;;;;;;;;;;11.27;50.08;100144.59;4922224;28;103658;-71
2023/12/06 01:11:22;;;;;;;;;;;;;;;11.25;50.09;100137.91;4909970;28;115850;-66
2023/12/06 01:13:48;;;;;;;;;;;;;;;11.26;50.04;100142.19;4936388;28;98266;-66
2023/12/06 01:16:14;;;;;;;;;;;;;;;11.25;49.96;100146.00;4930650;28;98138;-71
2023/12/06 01:18:40;;;;;;;;;;;;;;;11.24;50.02;100147.88;4929907;28;128198;-67
2023/12/06 01:21:06;;;;;;;;;;;;;;;11.23;50.08;100140.84;4937986;28;118876;-66
2023/12/06 01:23:32;;;;;;;;;;;;;;;11.23;49.93;100142.75;4934986;28;102049;-66
2023/12/06 01:25:58;;;;;;;;;;;;;;;11.23;50.02;100145.44;4937005;28;129202;-71
2023/12/06 01:28:24;;;;;;;;;;;;;;;11.23;50.06;100140.06;4925980;28;98599;-66
2023/12/06 01:30:50;;;;;;;;;;;;;;;11.22;49.89;100141.16;4929433;28;98784;-66
2023/12/06 01:33:16;;;;;;;;;;;;;;;11.21;50.01;100142.25;4945810;28;108109;-71
2023/12/06 01:35:42;;;;;;;;;;;;;;;11.21;49.97;100145.75;4938332;28;129029;-71
2023/12/06 01:38:08;;;;;;;;;;;;;;;11.20;50.18;100144.13;4940040;28;99165;-71
2023/12/06 01:40:38;;;;;;;;;;;;;;;11.21;50.03;100155.72;4929987;28;108028;-66
2023/12/06 01:43:04;;;;;;;;;;;;;;;11.20;50.01;100146.00;4892394;28;98840;-66
2023/12/06 01:45:30;;;;;;;;;;;;;;;11.19;49.94;100153.28;4919172;28;127939;-66
2023/12/06 01:47:56;;;;;;;;;;;;;;;11.20;50.05;100164.88;4934213;28;98826;-66
2023/12/06 01:50:23;;;;;;;;;;;;;;;11.19;49.97;100158.69;4925945;28;116970;-66
2023/12/06 01:52:49;;;;;;;;;;;;;;;11.19;50.12;100157.88;4928001;28;98424;-70
2023/12/06 01:55:15;;;;;;;;;;;;;;;11.19;50.12;100152.50;4915655;28;99017;-66
2023/12/06 01:57:41;;;;;;;;;;;;;;;11.19;50.19;100147.09;4926699;28;127992;-70
2023/12/06 02:00:07;;;;;;;;;;;;;;;11.18;50.13;100140.91;4937216;28;98886;-71
2023/12/06 02:02:33;;;;;;;;;;;;;;;11.19;50.04;100144.41;4943580;28;98248;-66
2023/12/06 02:04:59;;;;;;;;;;;;;;;11.18;50.02;100143.59;4930810;28;101607;-71
2023/12/06 02:07:26;;;;;;;;;;;;;;;11.19;49.96;100141.69;4943858;28;98479;-66
2023/12/06 02:09:52;;;;;;;;;;;;;;;11.18;49.95;100140.09;4941197;28;105942;-66
2023/12/06 02:12:18;;;;;;;;;;;;;;;11.20;50.05;100143.31;4941452;28;130496;-66
2023/12/06 02:14:44;;;;;;;;;;;;;;;11.18;50.21;100138.19;4929529;28;101521;-71
2023/12/06 02:17:10;;;;;;;;;;;;;;;11.19;49.85;100141.69;4937794;28;98046;-71
2023/12/06 02:19:36;;;;;;;;;;;;;;;11.19;49.85;100139.81;4923863;28;101691;-66
2023/12/06 02:22:02;;;;;;;;;;;;;;;11.20;49.87;100140.59;4949381;28;98552;-71
2023/12/06 02:24:29;;;;;;;;;;;;;;;11.20;50.03;100132.50;4945421;28;100032;-66
2023/12/06 02:26:56;;;;;;;;;;;;;;;11.19;49.94;100133.59;4920177;28;99742;-66
2023/12/06 02:29:25;;;;;;;;;;;;;;;11.18;49.98;100137.41;4945602;28;98234;-66
2023/12/06 02:31:51;;;;;;;;;;;;;;;11.17;49.85;100131.19;4935804;28;98306;-71
2023/12/06 02:34:21;;;;;;;;;;;;;;;11.17;50.26;100125.81;4944308;28;98225;-71
2023/12/06 02:36:48;;;;;;;;;;;;;;;11.18;49.98;100129.31;4941706;28;98349;-71
2023/12/06 02:39:15;;;;;;;;;;;;;;;11.17;49.87;100133.91;4929726;28;98569;-66
2023/12/06 02:41:41;;;;;;;;;;;;;;;11.16;50.07;100134.16;4958060;28;98151;-66
2023/12/06 02:44:07;;;;;;;;;;;;;;;11.17;50.01;100138.50;4903600;28;124119;-71
2023/12/06 02:46:35;;;;;;;;;;;;;;;11.17;49.76;100133.09;4907143;28;126718;-66
2023/12/06 02:49:01;;;;;;;;;;;;;;;11.16;50.14;100116.09;4937011;28;98063;-66
2023/12/06 02:51:27;;;;;;;;;;;;;;;11.16;50.00;100121.50;4937069;28;127773;-71
2023/12/06 02:53:53;;;;;;;;;;;;;;;11.17;50.03;100116.91;4918781;28;125655;-66
2023/12/06 02:56:19;;;;;;;;;;;;;;;11.15;50.05;100121.75;4921684;28;127819;-66
2023/12/06 02:58:45;;;;;;;;;;;;;;;11.16;50.00;100128.75;4926669;28;118298;-66
2023/12/06 03:01:12;;;;;;;;;;;;;;;11.15;50.18;100110.97;4917958;28;98288;-66
2023/12/06 03:03:38;;;;;;;;;;;;;;;11.15;50.00;100119.88;4926420;28;98235;-66
2023/12/06 03:06:04;;;;;;;;;;;;;;;11.15;49.85;100111.78;4934847;28;98200;-66
2023/12/06 03:08:30;;;;;;;;;;;;;;;11.15;50.00;100117.16;4921859;28;97933;-70
2023/12/06 03:10:56;;;;;;;;;;;;;;;11.14;49.84;100118.25;4914772;28;98867;-66
2023/12/06 03:13:22;;;;;;;;;;;;;;;11.13;49.88;100119.34;4946664;28;124408;-66
2023/12/06 03:15:48;;;;;;;;;;;;;;;11.12;50.02;100109.66;4954511;28;97996;-66
2023/12/06 03:18:14;;;;;;;;;;;;;;;11.13;50.02;100110.47;4923946;28;98775;-66
2023/12/06 03:20:42;;;;;;;;;;;;;;;11.12;49.77;100115.06;4927347;28;119283;-66
2023/12/06 03:23:08;;;;;;;;;;;;;;;11.12;50.08;100115.06;4936178;28;127407;-70
2023/12/06 03:25:34;;;;;;;;;;;;;;;11.16;49.97;100105.31;4898539;28;111627;-71
2023/12/06 03:28:00;;;;;;;;;;;;;;;11.24;50.07;100114.72;4931934;28;98354;-65
2023/12/06 03:30:26;;;;;;;;;;;;;;;11.29;50.10;100110.06;4925537;28;99777;-66
2023/12/06 03:32:52;;;;;;;;;;;;;;;11.37;50.17;100110.56;4936651;28;98156;-66
2023/12/06 03:35:18;;;;;;;;;;;;;;;11.40;50.06;100110.81;4926373;28;98621;-71
2023/12/06 03:37:44;;;;;;;;;;;;;;;11.44;49.99;100106.47;4957370;28;98215;-66
2023/12/06 03:40:11;;;;;;;;;;;;;;;11.47;50.14;100113.97;4919652;28;98504;-71
2023/12/06 03:42:37;;;;;;;;;;;;;;;11.50;50.16;100110.72;4929442;28;98226;-66
2023/12/06 03:45:04;;;;;;;;;;;;;;;11.52;50.02;100111.25;4917127;28;120061;-71
2023/12/06 03:47:30;;;;;;;;;;;;;;;11.54;50.14;100113.66;4939752;28;115050;-66
2023/12/06 03:49:56;;;;;;;;;;;;;;;11.57;49.98;100118.50;4934860;28;98427;-71
2023/12/06 03:52:22;;;;;;;;;;;;;;;11.58;50.11;100116.59;4943225;28;98196;-71
2023/12/06 03:54:48;;;;;;;;;;;;;;;11.59;50.10;100110.13;4955151;28;98602;-66
2023/12/06 03:57:14;;;;;;;;;;;;;;;11.59;50.01;100100.13;4924403;28;117210;-66
2023/12/06 03:59:40;;;;;;;;;;;;;;;11.59;50.07;100104.72;4938203;28;108801;-66
2023/12/06 04:02:07;;;;;;;;;;;;;;;11.58;50.05;100108.50;4930962;28;98084;-66
2023/12/06 04:04:33;;;;;;;;;;;;;;;11.60;50.01;100112.53;4942373;28;98463;-66
2023/12/06 04:06:59;;;;;;;;;;;;;;;11.59;49.96;100113.63;4912808;28;117322;-71
2023/12/06 04:09:25;;;;;;;;;;;;;;;11.59;50.19;100110.13;4926359;28;98425;-71
2023/12/06 04:11:51;;;;;;;;;;;;;;;11.59;50.33;100110.91;4948259;28;101468;-71
2023/12/06 04:14:17;;;;;;;;;;;;;;;11.58;50.03;100114.72;4924127;28;99306;-71
2023/12/06 04:16:43;;;;;;;;;;;;;;;11.58;49.97;100114.72;4943254;28;98295;-71
2023/12/06 04:19:09;;;;;;;;;;;;;;;11.58;49.95;100113.91;4920709;28;99196;-66
2023/12/06 04:21:35;;;;;;;;;;;;;;;11.58;50.10;100116.59;4926441;28;113124;-71
2023/12/06 04:24:01;;;;;;;;;;;;;;;11.57;50.10;100115.81;4916031;28;98251;-71
2023/12/06 04:26:27;;;;;;;;;;;;;;;11.55;50.25;100121.50;4939639;28;117911;-71
2023/12/06 04:28:53;;;;;;;;;;;;;;;11.56;50.02;100127.69;4939755;28;99921;-71
2023/12/06 04:31:19;;;;;;;;;;;;;;;11.54;50.09;100121.75;4942520;28;100134;-71
2023/12/06 04:33:45;;;;;;;;;;;;;;;11.55;50.05;100128.75;4923510;28;98119;-70
2023/12/06 04:36:12;;;;;;;;;;;;;;;11.55;50.20;100131.47;4928377;28;97947;-71
2023/12/06 04:38:38;;;;;;;;;;;;;;;11.54;50.17;100129.84;4939591;28;98433;-66
2023/12/06 04:41:04;;;;;;;;;;;;;;;11.52;50.15;100127.44;4919062;28;127615;-66
2023/12/06 04:43:30;;;;;;;;;;;;;;;11.52;50.13;100124.75;4928835;28;112305;-66
2023/12/06 04:45:55;;;;;;;;;;;;;;;11.51;50.10;100127.72;4917370;28;109215;-71
2023/12/06 04:48:22;;;;;;;;;;;;;;;11.51;50.04;100133.94;4937461;28;131088;-66
2023/12/06 04:50:48;;;;;;;;;;;;;;;11.50;50.06;100139.59;4928283;28;98681;-66
2023/12/06 04:53:13;;;;;;;;;;;;;;;11.50;50.36;100142.31;4952460;28;105322;-71
2023/12/06 04:55:40;;;;;;;;;;;;;;;11.49;50.10;100140.69;4945680;28;118028;-71
2023/12/06 04:58:06;;;;;;;;;;;;;;;11.49;49.90;100141.50;4923056;28;98031;-66
2023/12/06 05:00:31;;;;;;;;;;;;;;;11.48;50.07;100144.50;4908682;28;98015;-66
2023/12/06 05:02:58;;;;;;;;;;;;;;;11.48;50.15;100141.78;4944247;28;127377;-71
2023/12/06 05:05:24;;;;;;;;;;;;;;;11.47;50.13;100138.25;4945063;28;98109;-70
2023/12/06 05:07:50;;;;;;;;;;;;;;;11.45;50.08;100134.25;4938622;28;127802;-71
2023/12/06 05:10:16;;;;;;;;;;;;;;;11.45;50.09;100139.66;4929365;28;129583;-66
2023/12/06 05:12:42;;;;;;;;;;;;;;;11.44;50.01;100140.75;4928366;28;104713;-66
2023/12/06 05:15:09;;;;;;;;;;;;;;;11.44;49.89;100135.34;4930489;28;109493;-71
2023/12/06 05:17:35;;;;;;;;;;;;;;;11.42;50.04;100134.81;4941483;28;98308;-66
2023/12/06 05:20:01;;;;;;;;;;;;;;;11.41;50.13;100138.59;4938209;28;98014;-66
2023/12/06 05:22:27;;;;;;;;;;;;;;;11.41;50.12;100135.91;4927403;28;102570;-65
2023/12/06 05:24:53;;;;;;;;;;;;;;;11.41;50.02;100141.31;4933637;28;99501;-66
2023/12/06 05:27:19;;;;;;;;;;;;;;;11.40;50.02;100140.50;4922998;28;127828;-66
2023/12/06 05:29:45;;;;;;;;;;;;;;;11.40;50.04;100140.50;4942807;28;100510;-70
2023/12/06 05:32:11;;;;;;;;;;;;;;;11.40;50.25;100134.28;4932152;28;128650;-71
2023/12/06 05:34:37;;;;;;;;;;;;;;;11.39;50.00;100138.06;4940017;28;98289;-66
2023/12/06 05:37:03;;;;;;;;;;;;;;;11.39;50.07;100143.47;4950399;28;99631;-66
2023/12/06 05:39:31;;;;;;;;;;;;;;;11.40;50.10;100145.09;4954754;28;115281;-70
2023/12/06 05:41:57;;;;;;;;;;;;;;;11.38;50.06;100145.34;4909526;28;98360;-70
2023/12/06 05:44:23;;;;;;;;;;;;;;;11.40;49.94;100150.50;4937830;28;101500;-71
2023/12/06 05:46:49;;;;;;;;;;;;;;;11.40;49.98;100161.28;4919615;28;118052;-66
2023/12/06 05:49:16;;;;;;;;;;;;;;;11.40;50.03;100158.59;4926329;28;122358;-66
2023/12/06 05:51:42;;;;;;;;;;;;;;;11.38;49.94;100145.34;4925790;28;98365;-70
2023/12/06 05:54:08;;;;;;;;;;;;;;;11.38;50.31;100153.44;4952246;28;99700;-70
2023/12/06 05:56:34;;;;;;;;;;;;;;;11.40;49.90;100147.78;4906509;28;98677;-66
2023/12/06 05:59:00;;;;;;;;;;;;;;;11.39;49.93;100160.44;4911906;28;126747;-71
2023/12/06 06:01:26;;;;;;;;;;;;;;;11.40;50.02;100151.28;4944884;28;99249;-70
2023/12/06 06:03:52;;;;;;;;;;;;;;;11.38;50.02;100156.16;4940937;28;98012;-70
2023/12/06 06:06:18;;;;;;;;;;;;;;;11.38;49.82;100156.16;4943349;28;109438;-71
2023/12/06 06:08:44;;;;;;;;;;;;;;;11.39;50.05;100157.75;4945299;28;117338;-70
2023/12/06 06:11:10;;;;;;;;;;;;;;;11.39;49.88;100154.25;4934904;28;127757;-70
2023/12/06 06:13:36;;;;;;;;;;;;;;;11.39;49.98;100151.56;4941677;28;98135;-70
2023/12/06 06:16:02;;;;;;;;;;;;;;;11.39;49.87;100148.84;4909600;28;98303;-70
2023/12/06 06:18:28;;;;;;;;;;;;;;;11.39;50.14;100143.47;4940996;28;115473;-70
2023/12/06 06:20:54;;;;;;;;;;;;;;;11.38;49.73;100153.44;4931063;28;126154;-65
2023/12/06 06:23:20;;;;;;;;;;;;;;;11.39;49.99;100159.66;4943836;28;98573;-66
2023/12/06 06:25:46;;;;;;;;;;;;;;;11.40;49.77;100158.59;4956534;28;98452;-70
2023/12/06 06:28:12;;;;;;;;;;;;;;;11.40;49.73;100166.69;4919604;28;98256;-66
2023/12/06 06:30:38;;;;;;;;;;;;;;;11.40;49.90;100150.50;4959326;28;113361;-70
2023/12/06 06:33:04;;;;;;;;;;;;;;;11.40;49.88;100151.28;4930774;28;98912;-70
2023/12/06 06:35:30;;;;;;;;;;;;;;;11.39;50.14;100144.25;4922564;28;98473;-71
2023/12/06 06:37:56;;;;;;;;;;;;;;;11.39;49.97;100149.66;4934066;28;99723;-71
2023/12/06 06:40:22;;;;;;;;;;;;;;;11.40;49.97;100148.59;4935621;28;98322;-70
2023/12/06 06:42:48;;;;;;;;;;;;;;;11.39;49.95;100152.34;4926844;28;111886;-66
2023/12/06 06:45:14;;;;;;;;;;;;;;;11.41;50.05;100155.59;4959711;28;127646;-66
2023/12/06 06:47:40;;;;;;;;;;;;;;;11.40;49.95;100156.69;4939590;28;126507;-66
2023/12/06 06:50:07;;;;;;;;;;;;;;;11.41;49.96;100162.88;4950499;28;98160;-66
2023/12/06 06:52:34;;;;;;;;;;;;;;;11.41;49.95;100168.28;4928584;28;98121;-70
2023/12/06 06:55:00;;;;;;;;;;;;;;;11.41;49.93;100168.28;4938526;28;97914;-71
2023/12/06 06:57:26;;;;;;;;;;;;;;;11.42;49.95;100170.69;4940403;28;99428;-71
2023/12/06 06:59:52;;;;;;;;;;;;;;;11.43;49.91;100174.19;4934642;28;98565;-70
2023/12/06 07:02:18;;;;;;;;;;;;;;;11.44;49.93;100171.25;4942987;28;98152;-66
2023/12/06 07:04:44;;;;;;;;;;;;;;;11.45;49.94;100178.25;4945502;28;99765;-71
2023/12/06 07:07:11;;;;;;;;;;;;;;;11.46;49.87;100182.53;4903238;28;98017;-66
2023/12/06 07:09:37;;;;;;;;;;;;;;;11.46;49.93;100179.03;4943357;28;120789;-66
2023/12/06 07:12:03;;;;;;;;;;;;;;;11.48;49.90;100184.97;4930755;28;98039;-70
2023/12/06 07:14:29;;;;;;;;;;;;;;;11.48;50.10;100183.09;4924182;28;99139;-66
2023/12/06 07:16:56;;;;;;;;;;;;;;;11.50;50.03;100193.59;4919957;28;97932;-71
2023/12/06 07:19:23;;;;;;;;;;;;;;;11.50;49.98;100190.88;4927714;28;98148;-70
2023/12/06 07:21:49;;;;;;;;;;;;;;;11.52;50.06;100189.53;4935982;28;98005;-70
2023/12/06 07:24:15;;;;;;;;;;;;;;;11.53;50.14;100198.44;4940679;28;112756;-70
2023/12/06 07:26:42;;;;;;;;;;;;;;;11.54;49.87;100203.53;4920112;28;99839;-70
2023/12/06 07:29:08;;;;;;;;;;;;;;;11.56;49.97;100197.88;4925184;28;98524;-68
2023/12/06 07:31:34;;;;;;;;;;;;;;;11.57;49.76;100210.28;4940719;28;101354;-71
2023/12/06 07:34:00;;;;;;;;;;;;;;;11.59;49.89;100199.19;4929944;28;115693;-66
2023/12/06 07:36:26;;;;;;;;;;;;;;;11.60;49.88;100207.03;4918080;28;98203;-66
2023/12/06 07:38:52;;;;;;;;;;;;;;;11.63;49.94;100211.03;4887724;28;99810;-66
2023/12/06 07:41:19;;;;;;;;;;;;;;;11.64;49.74;100210.78;4953974;27;98480;-70
2023/12/06 07:43:45;;;;;;;;;;;;;;;11.66;49.90;100207.78;4940175;28;100024;-66
2023/12/06 07:46:11;;;;;;;;;;;;;;;11.68;49.86;100209.13;4937715;28;127723;-66
2023/12/06 07:48:37;;;;;;;;;;;;;;;11.71;49.83;100218.56;4954788;28;98879;-70
2023/12/06 07:51:03;;;;;;;;;;;;;;;11.72;49.80;100201.28;4933204;28;105659;-71
2023/12/06 07:53:29;;;;;;;;;;;;;;;11.73;49.95;100214.50;4955788;28;99006;-70
2023/12/06 07:55:55;;;;;;;;;;;;;;;11.75;49.78;100217.72;4919175;28;100473;-66
2023/12/06 07:58:22;;;;;;;;;;;;;;;11.78;49.86;100213.66;4923308;28;108338;-66
2023/12/06 08:00:49;;;;;;;;;;;;;;;11.80;49.80;100222.28;4942927;28;98213;-66
2023/12/06 08:03:15;;;;;;;;;;;;;;;11.80;49.77;100220.38;4935650;28;122667;-70
2023/12/06 08:05:41;;;;;;;;;;;;;;;11.84;49.95;100227.97;4924540;28;97969;-70
2023/12/06 08:08:07;;;;;;;;;;;;;;;11.85;49.88;100226.88;4936694;28;98356;-70
2023/12/06 08:10:33;;;;;;;;;;;;;;;11.87;49.85;100217.41;4923545;28;98514;-70
2023/12/06 08:13:03;;;;;;;;;;;;;;;11.89;49.86;100223.31;4948557;28;98737;-66
2023/12/06 08:15:29;;;;;;;;;;;;;;;11.91;49.77;100220.34;4939265;28;98116;-71
2023/12/06 08:17:56;;;;;;;;;;;;;;;11.93;49.63;100216.25;4932849;28;99192;-66
2023/12/06 08:20:22;;;;;;;;;;;;;;;11.96;49.66;100225.72;4926708;28;98834;-65
2023/12/06 08:22:49;;;;;;;;;;;;;;;11.97;49.58;100222.72;4932863;28;113941;-71
2023/12/06 08:25:15;;;;;;;;;;;;;;;12.00;49.81;100227.56;4927742;28;98782;-71
2023/12/06 08:27:41;;;;;;;;;;;;;;;12.04;49.67;100228.59;4940965;28;112749;-71
2023/12/06 08:30:07;;;;;;;;;;;;;;;12.06;49.82;100222.09;4923930;28;110851;-71
2023/12/06 08:32:33;;;;;;;;;;;;;;;12.09;49.57;100235.84;4919306;28;99237;-70
2023/12/06 08:35:01;;;;;;;;;;;;;;;12.10;49.69;100225.84;4912514;28;112321;-66
2023/12/06 08:37:27;;;;;;;;;;;;;;;12.11;49.83;100228.28;4936508;28;98057;-66
2023/12/06 08:39:53;;;;;;;;;;;;;;;12.11;49.70;100228.28;4915946;28;99336;-71
2023/12/06 08:42:19;;;;;;;;;;;;;;;12.13;49.58;100233.41;4924908;28;99999;-71
2023/12/06 08:44:45;;;;;;;;;;;;;;;12.14;49.80;100241.22;4926089;28;99621;-71
2023/12/06 08:47:12;;;;;;;;;;;;;;;12.15;49.77;100234.75;4937429;28;98289;-70
2023/12/06 08:49:38;;;;;;;;;;;;;;;12.16;49.66;100238.25;4928280;28;98652;-71
2023/12/06 08:52:05;;;;;;;;;;;;;;;12.17;49.75;100235.25;4950359;28;98564;-66
2023/12/06 08:54:34;;;;;;;;;;;;;;;12.19;49.74;100245.78;4944615;28;98370;-70
2023/12/06 08:57:00;;;;;;;;;;;;;;;12.20;49.60;100242.00;4955310;28;105216;-66
2023/12/06 08:59:26;;;;;;;;;;;;;;;12.21;49.88;100240.91;4947106;28;98551;-66
2023/12/06 09:01:52;;;;;;;;;;;;;;;12.23;49.80;100249.53;4924171;28;98314;-70
2023/12/06 09:04:19;;;;;;;;;;;;;;;12.25;49.70;100252.75;4927312;28;107871;-71
2023/12/06 09:06:45;;;;;;;;;;;;;;;12.26;49.52;100248.94;4928364;28;98064;-66
2023/12/06 09:09:17;;;;;;;;;;;;;;;12.27;49.66;100247.88;4942626;28;98070;-66
2023/12/06 09:11:44;;;;;;;;;;;;;;;12.28;49.42;100255.69;4929634;28;98249;-66
2023/12/06 09:14:10;;;;;;;;;;;;;;;12.29;49.84;100259.19;4923126;28;98746;-70
2023/12/06 09:16:36;;;;;;;;;;;;;;;12.28;49.90;100258.41;4945979;28;113730;-70
2023/12/06 09:19:03;;;;;;;;;;;;;;;12.30;49.83;100258.13;4949692;28;103846;-66
2023/12/06 09:21:43;;;;;;;;;;;;;;;12.31;49.69;100256.22;4959690;28;99608;-66
2023/12/06 09:24:13;;;;;;;;;;;;;;;12.32;49.55;100255.13;4937878;28;98461;-70
2023/12/06 09:26:39;;;;;;;;;;;;;;;12.33;49.85;100257.53;4942718;28;98945;-70
2023/12/06 09:29:06;;;;;;;;;;;;;;;12.32;49.95;100261.34;4921079;28;98089;-66
2023/12/06 09:31:35;;;;;;;;;;;;;;;12.32;49.90;100258.63;4908347;28;98230;-71
2023/12/06 09:34:02;;;;;;;;;;;;;;;12.34;49.64;100258.34;4948226;28;99045;-67
2023/12/06 09:36:28;;;;;;;;;;;;;;;12.34;49.84;100261.88;4941406;28;98222;-66
2023/12/06 09:38:58;;;;;;;;;;;;;;;12.35;49.89;100260.78;4941285;28;99014;-70
2023/12/06 09:41:28;;;;;;;;;;;;;;;12.38;49.87;100259.38;4928873;28;116096;-66
2023/12/06 09:43:54;;;;;;;;;;;;;;;12.40;49.81;100258.03;4915757;28;98998;-71
2023/12/06 09:46:21;;;;;;;;;;;;;;;12.42;49.92;100255.06;4929802;28;99321;-66
2023/12/06 09:48:47;;;;;;;;;;;;;;;12.46;49.83;100258.81;4917363;28;98362;-66
2023/12/06 09:51:14;;;;;;;;;;;;;;;12.47;49.52;100263.91;4907336;28;99841;-66
2023/12/06 09:53:40;;;;;;;;;;;;;;;12.52;49.67;100271.97;4956431;27;106229;-71
2023/12/06 09:56:08;;;;;;;;;;;;;;;12.56;49.37;100268.69;4902942;28;97979;-66
2023/12/06 09:58:34;;;;;;;;;;;;;;;12.57;49.58;100273.81;4932094;28;99036;-72
2023/12/06 10:01:01;;;;;;;;;;;;;;;12.58;49.43;100272.75;4919827;28;98423;-66
2023/12/06 10:03:27;;;;;;;;;;;;;;;12.62;49.49;100270.28;4955540;28;98353;-66
2023/12/06 10:05:57;;;;;;;;;;;;;;;12.64;49.66;100270.78;4938781;28;98857;-72
2023/12/06 10:08:23;;;;;;;;;;;;;;;12.65;49.51;100266.97;4916208;28;98337;-66
2023/12/06 10:10:59;;;;;;;;;;;;;;;12.68;49.48;100275.34;4933379;28;98293;-66
2023/12/06 10:13:35;;;;;;;;;;;;;;;12.71;49.59;100276.66;4926797;28;100181;-72
2023/12/06 10:16:01;;;;;;;;;;;;;;;12.74;49.75;100262.59;4936165;28;97962;-66
2023/12/06 10:18:27;;;;;;;;;;;;;;;12.74;49.49;100268.78;4928303;28;98114;-66
2023/12/06 10:20:54;;;;;;;;;;;;;;;12.80;49.56;100271.44;4921737;28;98965;-66
2023/12/06 10:23:21;;;;;;;;;;;;;;;12.83;49.70;100270.88;4926085;28;98066;-66
2023/12/06 10:25:47;;;;;;;;;;;;;;;12.83;49.68;100268.97;4947471;28;99518;-71
2023/12/06 10:28:17;;;;;;;;;;;;;;;12.86;49.77;100268.41;4927435;28;98784;-66
2023/12/06 10:30:43;;;;;;;;;;;;;;;12.88;49.61;100263.50;4929470;28;121313;-72
2023/12/06 10:33:10;;;;;;;;;;;;;;;12.93;49.65;100259.91;4935571;28;99571;-72
2023/12/06 10:35:36;;;;;;;;;;;;;;;13.01;49.41;100262.81;4959066;28;98027;-72
2023/12/06 10:38:02;;;;;;;;;;;;;;;13.10;49.41;100257.56;4940902;28;98459;-72
2023/12/06 10:40:28;;;;;;;;;;;;;;;13.17;49.22;100254.53;4955202;28;127511;-67
2023/12/06 10:43:01;;;;;;;;;;;;;;;13.21;49.49;100261.78;4938205;28;98070;-72
2023/12/06 10:45:27;;;;;;;;;;;;;;;13.24;49.32;100261.22;4924089;28;98549;-71
2023/12/06 10:47:53;;;;;;;;;;;;;;;13.27;49.39;100254.41;4930036;28;98116;-71
2023/12/06 10:50:19;;;;;;;;;;;;;;;13.29;49.20;100248.72;4943325;28;105821;-72
2023/12/06 10:52:45;;;;;;;;;;;;;;;13.33;49.36;100255.16;4926260;28;130387;-72
2023/12/06 10:55:11;;;;;;;;;;;;;;;13.35;49.32;100252.97;4938182;28;108645;-66
2023/12/06 10:57:37;;;;;;;;;;;;;;;13.38;49.30;100257.81;4947059;28;99078;-71
2023/12/06 11:00:05;;;;;;;;;;;;;;;13.38;49.23;100255.09;4951713;28;98436;-72
2023/12/06 11:02:31;;;;;;;;;;;;;;;13.37;49.51;100253.50;4935152;28;98243;-66
2023/12/06 11:04:57;;;;;;;;;;;;;;;13.36;49.29;100246.44;4914544;28;97980;-72
2023/12/06 11:07:45;;;;;;;;;;;;;;;13.33;49.42;100252.47;4942030;28;98492;-72
2023/12/06 11:10:11;;;;;;;;;;;;;;;13.30;49.40;100248.44;4938197;28;99505;-66
2023/12/06 11:13:05;;;;;;;;;;;;;;;13.27;49.65;100257.91;4939803;28;98289;-70
2023/12/06 11:15:43;;;;;;;;;;;;;;;13.25;49.64;100251.22;4942658;28;98098;-66
2023/12/06 11:18:12;;;;;;;;;;;;;;;13.24;49.45;100252.28;4936748;28;98357;-66
2023/12/06 11:20:43;;;;;;;;;;;;;;;13.20;49.50;100254.75;4956228;27;98429;-72
2023/12/06 11:23:12;;;;;;;;;;;;;;;13.18;49.71;100253.44;4919263;28;98104;-72
2023/12/06 11:25:45;;;;;;;;;;;;;;;13.17;49.81;100252.63;4941792;28;98698;-72
2023/12/06 11:28:12;;;;;;;;;;;;;;;13.16;49.58;100252.91;4936494;28;98284;-66
2023/12/06 11:30:48;;;;;;;;;;;;;;;13.15;49.68;100254.00;4922598;28;99198;-72
2023/12/06 11:33:15;;;;;;;;;;;;;;;13.15;49.55;100252.09;4920078;28;98164;-72
2023/12/06 11:35:44;;;;;;;;;;;;;;;13.15;49.55;100259.41;4940058;28;98133;-72
2023/12/06 11:38:10;;;;;;;;;;;;;;;13.15;49.55;100252.09;4948101;28;98302;-72
2023/12/06 11:40:36;;;;;;;;;;;;;;;13.14;49.84;100250.50;4929799;28;100341;-72
2023/12/06 11:43:03;;;;;;;;;;;;;;;13.14;49.95;100252.41;4940360;28;98469;-72
2023/12/06 11:45:30;;;;;;;;;;;;;;;13.15;49.71;100252.09;4923275;28;98310;-72
2023/12/06 11:48:02;;;;;;;;;;;;;;;13.15;49.83;100262.91;4924184;28;98120;-66
2023/12/06 11:50:28;;;;;;;;;;;;;;;13.15;49.99;100270.22;4920711;28;99326;-66
2023/12/06 11:52:55;;;;;;;;;;;;;;;13.14;49.64;100264.03;4931114;28;117940;-72
2023/12/06 11:55:21;;;;;;;;;;;;;;;13.14;49.83;100258.59;4923661;28;97895;-67
2023/12/06 11:58:09;;;;;;;;;;;;;;;13.15;49.75;100264.81;4946123;28;98133;-72
2023/12/06 12:00:38;;;;;;;;;;;;;;;13.14;49.55;100264.03;4925341;28;112578;-72
2023/12/06 12:03:04;;;;;;;;;;;;;;;13.15;49.79;100270.22;4935844;28;98116;-72
2023/12/06 12:05:31;;;;;;;;;;;;;;;13.14;49.90;100268.63;4921491;28;126764;-66
2023/12/06 12:08:02;;;;;;;;;;;;;;;13.13;50.03;100272.44;4933932;28;98226;-71
2023/12/06 12:10:28;;;;;;;;;;;;;;;13.13;49.77;100275.94;4924587;28;98339;-67
2023/12/06 12:12:54;;;;;;;;;;;;;;;13.14;49.87;100271.34;4916480;28;98511;-71
2023/12/06 12:15:20;;;;;;;;;;;;;;;13.14;49.88;100269.44;4907189;28;102686;-72
2023/12/06 12:17:46;;;;;;;;;;;;;;;13.15;49.91;100267.53;4898854;28;98134;-67
2023/12/06 12:20:13;;;;;;;;;;;;;;;13.15;49.60;100275.66;4943842;28;98093;-67
2023/12/06 12:22:49;;;;;;;;;;;;;;;13.14;49.65;100265.94;4911105;28;124958;-72
2023/12/06 12:25:15;;;;;;;;;;;;;;;13.16;49.79;100269.13;4911710;28;99554;-72
2023/12/06 12:27:45;;;;;;;;;;;;;;;13.16;49.89;100269.13;4945935;28;98265;-72
2023/12/06 12:30:12;;;;;;;;;;;;;;;13.18;49.77;100272.38;4911000;28;124727;-72